Airfield :
LOGIN :

Register | Disclaimer

   EN    FR    IT 

 










Legend :    VFR   Marginal VFR   IFR   Intensive IFR   Very Intensive IFR
Visi :
Ceiling :
>= 8 km
>= 3000ft
5 to 8 km
1000 to 3000 ft
1500m to 5 km
500 to 1000 ft
800 to 1500m
200 to 500 ft
< 800m
< 200 ft
Symbols :   Thunderstorms  Fog  Heavy snow  Heavy precipitations  Wind > 20 kt
SIGMETs :     Misc.  Thunderstorms  Icing  Turbulence  Mountain Waves  Volcanic Ashes






- Airport Elevation : 239 ft
- IATA code : VRN


LIPX - Villafranca Int. Verona

CURRENT METAR :
  • 181250Z AUTO 10007KT 050V150 9999 FEW045/// 27/15 Q1022

EXPIRED METARs :
  • 181220Z AUTO 11008KT 050V150 9999 FEW043/// SCT066/// 26/15 Q1022
  • 181150Z AUTO 10008KT 050V160 9999 FEW041/// SCT120/// 26/16 Q1022
  • 181120Z AUTO 10009KT 060V130 9999 NCD 26/15 Q1022
  • 181050Z AUTO 11011KT 070V140 9999 SCT120/// 25/15 Q1022
  • 181020Z AUTO 09013KT 070V130 9999 BKN120/// 25/14 Q1022

TAF TAF LIPX
Valid from the 18 at 12:00 until the 19 at 12:00 UTC


181100Z 1812/1912 10012KT 9999 SCT030
PROB30
TEMPO 1814/1820 SHRA
BECMG 1818/1820 VRB05KT
BECMG 1906/1908 10010KT



MET'MAP, your aeronautical weather chart ! - Copyright ORBIFLY December 2007 - Disclaimer

ORBIFLY MET'MAP TEAM :

Programming & Development : Alexandra Zaïnal
Original concept : Baudouin d'Aumeries
Technical & hardware support : Manuel Goepfert
Assistance : Marc-Olivier Méhu

Contact : metmap@orbifly.com




SOURCES & CREDITS :

   NOAA